メインページ
METAR-TAF:

METAR-TAF

空港 :

ブルネイ, ブルネイ

ブルネイ国際空港

緯度: 04-56N, 経度: 114-56E, 海抜: 22m

現時点の気象観測

当レポートは14分前の12:00(UTC)に作成
北/北東の風 9kt
気温 28°C
湿度 84%
気圧 1011 hPa
視程10km以上
高度1500ftの雲は散在している
高度28000ftの千切れ雲あり

METAR: WBSB 241200Z 02009KT 9999 SCT015 BKN280 28/25 Q1011 NOSIG

時間: 20:14 (12:14 UTC)

予報

当レポートは1時間14分前の11:00(UTC)に作成
予報は24日の 12時(UTC)から 25日の 18時(UTC)まで有効
北東の風 8kt
視程10km以上
高度1500ftの雲は散在している
高度1600ftの雲はほとんどない, 積乱雲.
24日の 14時(UTC)から 24日の 18時(UTC)まで一時的に
視程: 4000m
高度1400ftの雲は散在している
高度1500ftの雲はほとんどない, 積乱雲.
激しい雷雨, 雨
24日の 19時(UTC)から 25日の 00時(UTC)まで一時的に
視程: 8000m
高度400ftの雲はほとんどない
小雨

TAF: WBSB 241100Z 2412/2518 04008KT 9999 SCT015 FEW016CB TEMPO 2414/2418 4000 TSRA SCT014 FEW015CB TEMPO 2419/2500 8000 -RA FEW004

4,000以上の空港の気象観測と天気予報(METAR報とTAF報)

利用可能な観測所は地図上に黄色い丸と赤い丸で示す。

丸の上にカーソルを重ねると観測所名を参照できる。

次にクリックすると気象観測と天気予報を参照できる。

マップの切り替え:黒色「×」印の緑ボタンをクリックして拡大、「-」印の緑ボタンをクリックして縮小、緑色の三角印をクリックして隣りの地図に切り替え


METAR-TAF: